sensor_id;sensor_type;location;lat;lon;timestamp;P1;durP1;ratioP1;P2;durP2;ratioP2
66139;SDS011;52945;51.908;8.364;2024-01-15T00:01:48;14.02;;;5.50;;
66139;SDS011;52945;51.908;8.364;2024-01-15T00:04:49;14.18;;;6.07;;
66139;SDS011;52945;51.908;8.364;2024-01-15T00:07:50;8.00;;;4.03;;
66139;SDS011;52945;51.908;8.364;2024-01-15T00:10:50;9.95;;;4.15;;
66139;SDS011;52945;51.908;8.364;2024-01-15T00:13:51;10.85;;;4.65;;
66139;SDS011;52945;51.908;8.364;2024-01-15T00:16:52;7.22;;;3.75;;
66139;SDS011;52945;51.908;8.364;2024-01-15T00:19:55;8.13;;;4.30;;
66139;SDS011;52945;51.908;8.364;2024-01-15T00:22:55;9.02;;;4.28;;
66139;SDS011;52945;51.908;8.364;2024-01-15T00:25:56;11.40;;;4.15;;
66139;SDS011;52945;51.908;8.364;2024-01-15T00:28:57;10.13;;;4.63;;
66139;SDS011;52945;51.908;8.364;2024-01-15T00:31:57;12.00;;;4.13;;
66139;SDS011;52945;51.908;8.364;2024-01-15T00:34:58;10.80;;;4.40;;
66139;SDS011;52945;51.908;8.364;2024-01-15T00:37:59;10.35;;;4.65;;
66139;SDS011;52945;51.908;8.364;2024-01-15T00:40:59;8.60;;;3.65;;
66139;SDS011;52945;51.908;8.364;2024-01-15T00:44:00;9.45;;;3.53;;
66139;SDS011;52945;51.908;8.364;2024-01-15T00:47:00;7.18;;;3.40;;
66139;SDS011;52945;51.908;8.364;2024-01-15T00:50:01;5.10;;;2.75;;
66139;SDS011;52945;51.908;8.364;2024-01-15T00:53:04;13.18;;;3.72;;
66139;SDS011;52945;51.908;8.364;2024-01-15T00:56:04;12.15;;;3.70;;
66139;SDS011;52945;51.908;8.364;2024-01-15T00:59:06;10.50;;;3.97;;
66139;SDS011;52945;51.908;8.364;2024-01-15T01:02:08;6.05;;;3.25;;
66139;SDS011;52945;51.908;8.364;2024-01-15T01:05:08;7.97;;;3.55;;
66139;SDS011;52945;51.908;8.364;2024-01-15T01:08:09;6.95;;;2.83;;
66139;SDS011;52945;51.908;8.364;2024-01-15T01:11:13;5.40;;;2.90;;
66139;SDS011;52945;51.908;8.364;2024-01-15T01:14:14;7.88;;;3.15;;
66139;SDS011;52945;51.908;8.364;2024-01-15T01:17:15;6.63;;;3.20;;
66139;SDS011;52945;51.908;8.364;2024-01-15T01:20:16;8.95;;;3.33;;
66139;SDS011;52945;51.908;8.364;2024-01-15T01:23:17;5.63;;;3.08;;
66139;SDS011;52945;51.908;8.364;2024-01-15T01:26:17;6.32;;;2.90;;
66139;SDS011;52945;51.908;8.364;2024-01-15T01:29:18;8.50;;;4.13;;
66139;SDS011;52945;51.908;8.364;2024-01-15T01:32:18;9.18;;;3.83;;
66139;SDS011;52945;51.908;8.364;2024-01-15T01:35:19;8.30;;;3.47;;
66139;SDS011;52945;51.908;8.364;2024-01-15T01:38:20;8.20;;;3.00;;
66139;SDS011;52945;51.908;8.364;2024-01-15T01:41:21;8.15;;;4.10;;
66139;SDS011;52945;51.908;8.364;2024-01-15T01:44:21;7.28;;;3.10;;
66139;SDS011;52945;51.908;8.364;2024-01-15T01:47:22;9.07;;;3.47;;
66139;SDS011;52945;51.908;8.364;2024-01-15T01:50:23;5.88;;;3.67;;
66139;SDS011;52945;51.908;8.364;2024-01-15T01:53:25;6.63;;;2.55;;
66139;SDS011;52945;51.908;8.364;2024-01-15T01:56:26;6.65;;;3.88;;
66139;SDS011;52945;51.908;8.364;2024-01-15T01:59:27;10.60;;;3.05;;
66139;SDS011;52945;51.908;8.364;2024-01-15T02:02:29;6.32;;;3.00;;
66139;SDS011;52945;51.908;8.364;2024-01-15T02:05:30;6.78;;;3.33;;
66139;SDS011;52945;51.908;8.364;2024-01-15T02:08:31;7.45;;;3.83;;
66139;SDS011;52945;51.908;8.364;2024-01-15T02:11:32;7.88;;;3.17;;
66139;SDS011;52945;51.908;8.364;2024-01-15T02:14:33;6.25;;;2.45;;
66139;SDS011;52945;51.908;8.364;2024-01-15T02:17:33;12.27;;;3.65;;
66139;SDS011;52945;51.908;8.364;2024-01-15T02:20:34;6.45;;;2.55;;
66139;SDS011;52945;51.908;8.364;2024-01-15T02:23:36;10.60;;;3.78;;
66139;SDS011;52945;51.908;8.364;2024-01-15T02:29:38;9.75;;;3.65;;
66139;SDS011;52945;51.908;8.364;2024-01-15T02:32:39;11.88;;;3.28;;
66139;SDS011;52945;51.908;8.364;2024-01-15T02:35:39;6.95;;;3.10;;
66139;SDS011;52945;51.908;8.364;2024-01-15T02:38:41;11.68;;;3.80;;
66139;SDS011;52945;51.908;8.364;2024-01-15T02:41:41;8.25;;;3.42;;
66139;SDS011;52945;51.908;8.364;2024-01-15T02:44:42;11.23;;;4.35;;
66139;SDS011;52945;51.908;8.364;2024-01-15T02:47:42;8.82;;;4.22;;
66139;SDS011;52945;51.908;8.364;2024-01-15T02:50:43;13.52;;;3.72;;
66139;SDS011;52945;51.908;8.364;2024-01-15T02:53:44;7.85;;;3.30;;
66139;SDS011;52945;51.908;8.364;2024-01-15T02:56:45;8.27;;;2.63;;
66139;SDS011;52945;51.908;8.364;2024-01-15T02:59:45;10.77;;;3.65;;
66139;SDS011;52945;51.908;8.364;2024-01-15T03:02:47;7.38;;;3.65;;
66139;SDS011;52945;51.908;8.364;2024-01-15T03:05:50;9.18;;;3.17;;
66139;SDS011;52945;51.908;8.364;2024-01-15T03:08:50;8.07;;;3.50;;
66139;SDS011;52945;51.908;8.364;2024-01-15T03:11:51;11.30;;;3.40;;
66139;SDS011;52945;51.908;8.364;2024-01-15T03:14:51;8.10;;;2.83;;
66139;SDS011;52945;51.908;8.364;2024-01-15T03:17:52;15.25;;;3.28;;
66139;SDS011;52945;51.908;8.364;2024-01-15T03:20:52;6.50;;;3.40;;
66139;SDS011;52945;51.908;8.364;2024-01-15T03:23:53;10.57;;;4.05;;
66139;SDS011;52945;51.908;8.364;2024-01-15T03:26:54;10.90;;;3.40;;
66139;SDS011;52945;51.908;8.364;2024-01-15T03:29:54;5.95;;;2.97;;
66139;SDS011;52945;51.908;8.364;2024-01-15T03:32:55;13.85;;;4.07;;
66139;SDS011;52945;51.908;8.364;2024-01-15T03:35:55;14.65;;;3.72;;
66139;SDS011;52945;51.908;8.364;2024-01-15T03:38:56;12.95;;;3.67;;
66139;SDS011;52945;51.908;8.364;2024-01-15T03:41:56;10.65;;;2.88;;
66139;SDS011;52945;51.908;8.364;2024-01-15T03:44:57;10.55;;;4.32;;
66139;SDS011;52945;51.908;8.364;2024-01-15T03:47:58;9.88;;;2.50;;
66139;SDS011;52945;51.908;8.364;2024-01-15T03:50:59;9.20;;;3.33;;
66139;SDS011;52945;51.908;8.364;2024-01-15T03:53:59;8.05;;;3.13;;
66139;SDS011;52945;51.908;8.364;2024-01-15T03:57:00;6.40;;;3.33;;
66139;SDS011;52945;51.908;8.364;2024-01-15T04:00:00;10.70;;;3.30;;
66139;SDS011;52945;51.908;8.364;2024-01-15T04:03:01;12.82;;;3.35;;
66139;SDS011;52945;51.908;8.364;2024-01-15T04:06:03;6.03;;;2.67;;
66139;SDS011;52945;51.908;8.364;2024-01-15T04:09:05;11.13;;;3.38;;
66139;SDS011;52945;51.908;8.364;2024-01-15T04:12:06;9.30;;;3.63;;
66139;SDS011;52945;51.908;8.364;2024-01-15T04:15:06;5.00;;;2.42;;
66139;SDS011;52945;51.908;8.364;2024-01-15T04:18:07;8.32;;;3.40;;
66139;SDS011;52945;51.908;8.364;2024-01-15T04:21:08;8.02;;;3.20;;
66139;SDS011;52945;51.908;8.364;2024-01-15T04:24:08;8.38;;;3.50;;
66139;SDS011;52945;51.908;8.364;2024-01-15T04:27:09;14.05;;;3.55;;
66139;SDS011;52945;51.908;8.364;2024-01-15T04:30:10;4.75;;;2.80;;
66139;SDS011;52945;51.908;8.364;2024-01-15T04:33:10;11.10;;;2.72;;
66139;SDS011;52945;51.908;8.364;2024-01-15T04:36:11;6.45;;;3.47;;
66139;SDS011;52945;51.908;8.364;2024-01-15T04:39:12;7.18;;;3.72;;
66139;SDS011;52945;51.908;8.364;2024-01-15T04:42:12;7.45;;;3.13;;
66139;SDS011;52945;51.908;8.364;2024-01-15T04:45:13;5.68;;;2.95;;
66139;SDS011;52945;51.908;8.364;2024-01-15T04:48:14;8.65;;;3.22;;
66139;SDS011;52945;51.908;8.364;2024-01-15T04:51:14;9.05;;;3.33;;
66139;SDS011;52945;51.908;8.364;2024-01-15T04:54:15;10.30;;;3.75;;
66139;SDS011;52945;51.908;8.364;2024-01-15T04:57:18;10.95;;;3.17;;
66139;SDS011;52945;51.908;8.364;2024-01-15T05:00:19;5.35;;;3.38;;
66139;SDS011;52945;51.908;8.364;2024-01-15T05:03:19;7.82;;;2.90;;
66139;SDS011;52945;51.908;8.364;2024-01-15T05:06:20;7.68;;;3.40;;
66139;SDS011;52945;51.908;8.364;2024-01-15T05:09:21;5.78;;;3.08;;
66139;SDS011;52945;51.908;8.364;2024-01-15T05:12:21;5.07;;;2.50;;
66139;SDS011;52945;51.908;8.364;2024-01-15T05:15:22;5.72;;;2.58;;
66139;SDS011;52945;51.908;8.364;2024-01-15T05:18:23;7.03;;;3.33;;
66139;SDS011;52945;51.908;8.364;2024-01-15T05:21:23;7.80;;;2.28;;
66139;SDS011;52945;51.908;8.364;2024-01-15T05:24:24;7.38;;;2.38;;
66139;SDS011;52945;51.908;8.364;2024-01-15T05:27:26;5.03;;;1.92;;
66139;SDS011;52945;51.908;8.364;2024-01-15T05:30:27;4.93;;;2.47;;
66139;SDS011;52945;51.908;8.364;2024-01-15T05:33:27;5.13;;;2.90;;
66139;SDS011;52945;51.908;8.364;2024-01-15T05:36:28;5.47;;;2.90;;
66139;SDS011;52945;51.908;8.364;2024-01-15T05:39:28;6.97;;;2.65;;
66139;SDS011;52945;51.908;8.364;2024-01-15T05:42:29;4.97;;;2.63;;
66139;SDS011;52945;51.908;8.364;2024-01-15T05:45:31;6.07;;;3.40;;
66139;SDS011;52945;51.908;8.364;2024-01-15T05:48:35;7.10;;;2.95;;
66139;SDS011;52945;51.908;8.364;2024-01-15T05:51:35;9.32;;;3.58;;
66139;SDS011;52945;51.908;8.364;2024-01-15T05:54:36;5.90;;;2.53;;
66139;SDS011;52945;51.908;8.364;2024-01-15T05:57:37;8.40;;;2.95;;
66139;SDS011;52945;51.908;8.364;2024-01-15T06:00:37;5.65;;;2.60;;
66139;SDS011;52945;51.908;8.364;2024-01-15T06:03:38;6.70;;;2.95;;
66139;SDS011;52945;51.908;8.364;2024-01-15T06:06:38;6.43;;;3.40;;
66139;SDS011;52945;51.908;8.364;2024-01-15T06:09:39;7.45;;;3.35;;
66139;SDS011;52945;51.908;8.364;2024-01-15T06:12:39;6.85;;;4.07;;
66139;SDS011;52945;51.908;8.364;2024-01-15T06:15:40;6.40;;;2.78;;
66139;SDS011;52945;51.908;8.364;2024-01-15T06:18:40;5.35;;;2.35;;
66139;SDS011;52945;51.908;8.364;2024-01-15T06:21:41;7.15;;;3.47;;
66139;SDS011;52945;51.908;8.364;2024-01-15T06:24:42;10.48;;;4.25;;
66139;SDS011;52945;51.908;8.364;2024-01-15T06:27:42;4.43;;;2.50;;
66139;SDS011;52945;51.908;8.364;2024-01-15T06:30:43;7.20;;;3.75;;
66139;SDS011;52945;51.908;8.364;2024-01-15T06:33:43;3.88;;;2.38;;
66139;SDS011;52945;51.908;8.364;2024-01-15T06:36:48;7.55;;;3.75;;
66139;SDS011;52945;51.908;8.364;2024-01-15T06:39:48;6.78;;;3.08;;
66139;SDS011;52945;51.908;8.364;2024-01-15T06:42:49;7.88;;;2.78;;
66139;SDS011;52945;51.908;8.364;2024-01-15T06:45:50;6.03;;;2.40;;
66139;SDS011;52945;51.908;8.364;2024-01-15T06:48:50;5.53;;;2.53;;
66139;SDS011;52945;51.908;8.364;2024-01-15T06:51:51;4.35;;;2.35;;
66139;SDS011;52945;51.908;8.364;2024-01-15T06:54:52;5.38;;;2.50;;
66139;SDS011;52945;51.908;8.364;2024-01-15T06:57:53;5.03;;;2.38;;
66139;SDS011;52945;51.908;8.364;2024-01-15T07:00:53;6.32;;;2.40;;
66139;SDS011;52945;51.908;8.364;2024-01-15T07:03:54;4.88;;;2.47;;
66139;SDS011;52945;51.908;8.364;2024-01-15T07:06:54;7.72;;;3.00;;
66139;SDS011;52945;51.908;8.364;2024-01-15T07:09:55;6.50;;;2.53;;
66139;SDS011;52945;51.908;8.364;2024-01-15T07:12:57;4.05;;;1.95;;
66139;SDS011;52945;51.908;8.364;2024-01-15T07:15:57;4.88;;;2.47;;
66139;SDS011;52945;51.908;8.364;2024-01-15T07:18:58;8.20;;;2.33;;
66139;SDS011;52945;51.908;8.364;2024-01-15T07:21:58;5.28;;;2.10;;
66139;SDS011;52945;51.908;8.364;2024-01-15T07:24:59;5.70;;;1.88;;
66139;SDS011;52945;51.908;8.364;2024-01-15T07:28:00;7.78;;;2.47;;
66139;SDS011;52945;51.908;8.364;2024-01-15T07:31:00;7.50;;;2.15;;
66139;SDS011;52945;51.908;8.364;2024-01-15T07:34:01;4.32;;;2.38;;
66139;SDS011;52945;51.908;8.364;2024-01-15T07:37:02;4.78;;;2.35;;
66139;SDS011;52945;51.908;8.364;2024-01-15T07:40:03;3.90;;;1.92;;
66139;SDS011;52945;51.908;8.364;2024-01-15T07:43:04;8.35;;;1.92;;
66139;SDS011;52945;51.908;8.364;2024-01-15T07:46:05;7.55;;;1.95;;
66139;SDS011;52945;51.908;8.364;2024-01-15T07:49:07;4.88;;;1.77;;
66139;SDS011;52945;51.908;8.364;2024-01-15T07:52:07;3.30;;;1.92;;
66139;SDS011;52945;51.908;8.364;2024-01-15T07:55:08;6.32;;;1.88;;
66139;SDS011;52945;51.908;8.364;2024-01-15T07:58:08;2.88;;;1.85;;
66139;SDS011;52945;51.908;8.364;2024-01-15T08:04:12;4.05;;;2.38;;
66139;SDS011;52945;51.908;8.364;2024-01-15T08:07:13;3.28;;;1.90;;
66139;SDS011;52945;51.908;8.364;2024-01-15T08:10:14;3.95;;;2.40;;
66139;SDS011;52945;51.908;8.364;2024-01-15T08:13:14;2.95;;;2.08;;
66139;SDS011;52945;51.908;8.364;2024-01-15T08:16:15;2.95;;;1.80;;
66139;SDS011;52945;51.908;8.364;2024-01-15T08:19:16;4.40;;;2.17;;
66139;SDS011;52945;51.908;8.364;2024-01-15T08:22:16;3.55;;;1.58;;
66139;SDS011;52945;51.908;8.364;2024-01-15T08:25:17;3.95;;;1.80;;
66139;SDS011;52945;51.908;8.364;2024-01-15T08:28:17;3.80;;;2.50;;
66139;SDS011;52945;51.908;8.364;2024-01-15T08:31:18;3.85;;;1.85;;
66139;SDS011;52945;51.908;8.364;2024-01-15T08:34:18;2.72;;;2.05;;
66139;SDS011;52945;51.908;8.364;2024-01-15T08:37:19;3.58;;;2.13;;
66139;SDS011;52945;51.908;8.364;2024-01-15T08:40:20;3.85;;;1.83;;
66139;SDS011;52945;51.908;8.364;2024-01-15T08:43:20;5.82;;;2.00;;
66139;SDS011;52945;51.908;8.364;2024-01-15T08:46:21;5.30;;;1.90;;
66139;SDS011;52945;51.908;8.364;2024-01-15T08:49:21;3.83;;;2.17;;
66139;SDS011;52945;51.908;8.364;2024-01-15T08:52:22;6.03;;;2.42;;
66139;SDS011;52945;51.908;8.364;2024-01-15T08:55:22;5.88;;;2.35;;
66139;SDS011;52945;51.908;8.364;2024-01-15T08:58:23;7.03;;;2.60;;
66139;SDS011;52945;51.908;8.364;2024-01-15T09:01:24;3.85;;;2.03;;
66139;SDS011;52945;51.908;8.364;2024-01-15T09:04:25;5.57;;;2.45;;
66139;SDS011;52945;51.908;8.364;2024-01-15T09:07:26;3.15;;;1.90;;
66139;SDS011;52945;51.908;8.364;2024-01-15T09:10:26;5.00;;;2.05;;
66139;SDS011;52945;51.908;8.364;2024-01-15T09:13:27;10.50;;;2.75;;
66139;SDS011;52945;51.908;8.364;2024-01-15T09:16:28;4.20;;;2.20;;
66139;SDS011;52945;51.908;8.364;2024-01-15T09:19:29;4.55;;;2.17;;
66139;SDS011;52945;51.908;8.364;2024-01-15T09:22:29;5.70;;;2.38;;
66139;SDS011;52945;51.908;8.364;2024-01-15T09:25:30;3.85;;;2.05;;
66139;SDS011;52945;51.908;8.364;2024-01-15T09:28:30;3.88;;;2.33;;
66139;SDS011;52945;51.908;8.364;2024-01-15T09:31:31;3.47;;;1.80;;
66139;SDS011;52945;51.908;8.364;2024-01-15T09:34:32;7.80;;;2.40;;
66139;SDS011;52945;51.908;8.364;2024-01-15T09:37:32;4.10;;;2.20;;
66139;SDS011;52945;51.908;8.364;2024-01-15T09:40:33;2.92;;;1.85;;
66139;SDS011;52945;51.908;8.364;2024-01-15T09:43:33;6.97;;;1.55;;
66139;SDS011;52945;51.908;8.364;2024-01-15T09:46:35;3.45;;;1.67;;
66139;SDS011;52945;51.908;8.364;2024-01-15T09:49:35;5.75;;;1.60;;
66139;SDS011;52945;51.908;8.364;2024-01-15T09:52:37;4.00;;;1.80;;
66139;SDS011;52945;51.908;8.364;2024-01-15T09:55:39;2.38;;;1.60;;
66139;SDS011;52945;51.908;8.364;2024-01-15T09:58:40;2.75;;;1.80;;
66139;SDS011;52945;51.908;8.364;2024-01-15T10:01:43;4.53;;;1.85;;
66139;SDS011;52945;51.908;8.364;2024-01-15T10:04:44;3.90;;;1.20;;
66139;SDS011;52945;51.908;8.364;2024-01-15T10:07:46;1.48;;;1.30;;
66139;SDS011;52945;51.908;8.364;2024-01-15T10:10:50;6.32;;;1.80;;
66139;SDS011;52945;51.908;8.364;2024-01-15T10:13:50;5.03;;;1.40;;
66139;SDS011;52945;51.908;8.364;2024-01-15T10:16:53;2.08;;;1.55;;
66139;SDS011;52945;51.908;8.364;2024-01-15T10:19:55;1.83;;;1.27;;
66139;SDS011;52945;51.908;8.364;2024-01-15T10:22:56;4.68;;;1.70;;
66139;SDS011;52945;51.908;8.364;2024-01-15T10:25:57;1.50;;;1.25;;
66139;SDS011;52945;51.908;8.364;2024-01-15T10:28:58;3.17;;;1.23;;
66139;SDS011;52945;51.908;8.364;2024-01-15T10:32:00;4.20;;;2.13;;
66139;SDS011;52945;51.908;8.364;2024-01-15T10:35:01;4.38;;;1.40;;
66139;SDS011;52945;51.908;8.364;2024-01-15T10:38:02;2.70;;;1.90;;
66139;SDS011;52945;51.908;8.364;2024-01-15T10:41:03;5.25;;;1.45;;
66139;SDS011;52945;51.908;8.364;2024-01-15T10:44:04;2.78;;;1.77;;
66139;SDS011;52945;51.908;8.364;2024-01-15T10:47:05;6.43;;;1.83;;
66139;SDS011;52945;51.908;8.364;2024-01-15T10:50:06;3.55;;;1.60;;
66139;SDS011;52945;51.908;8.364;2024-01-15T10:53:08;10.57;;;2.13;;
66139;SDS011;52945;51.908;8.364;2024-01-15T10:56:11;2.92;;;1.52;;
66139;SDS011;52945;51.908;8.364;2024-01-15T10:59:13;6.05;;;1.23;;
66139;SDS011;52945;51.908;8.364;2024-01-15T11:02:14;2.97;;;1.70;;
66139;SDS011;52945;51.908;8.364;2024-01-15T11:05:15;1.92;;;1.27;;
66139;SDS011;52945;51.908;8.364;2024-01-15T11:08:18;2.92;;;1.67;;
66139;SDS011;52945;51.908;8.364;2024-01-15T11:11:19;5.32;;;1.20;;
66139;SDS011;52945;51.908;8.364;2024-01-15T11:24:35;1.92;;;1.20;;
66139;SDS011;52945;51.908;8.364;2024-01-15T11:27:40;3.60;;;1.90;;
66139;SDS011;52945;51.908;8.364;2024-01-15T11:30:51;2.58;;;1.48;;
66139;SDS011;52945;51.908;8.364;2024-01-15T11:33:53;1.73;;;1.52;;
66139;SDS011;52945;51.908;8.364;2024-01-15T11:40:02;2.67;;;1.33;;
66139;SDS011;52945;51.908;8.364;2024-01-15T11:43:10;1.92;;;1.33;;
66139;SDS011;52945;51.908;8.364;2024-01-15T11:46:14;3.28;;;1.70;;
66139;SDS011;52945;51.908;8.364;2024-01-15T11:49:26;4.82;;;1.70;;
66139;SDS011;52945;51.908;8.364;2024-01-15T11:52:31;3.00;;;1.35;;
66139;SDS011;52945;51.908;8.364;2024-01-15T11:55:35;1.33;;;1.15;;
66139;SDS011;52945;51.908;8.364;2024-01-15T11:58:41;1.55;;;1.00;;
66139;SDS011;52945;51.908;8.364;2024-01-15T12:01:42;1.83;;;1.00;;
66139;SDS011;52945;51.908;8.364;2024-01-15T12:04:43;2.08;;;0.98;;
66139;SDS011;52945;51.908;8.364;2024-01-15T12:07:44;0.80;;;0.80;;
66139;SDS011;52945;51.908;8.364;2024-01-15T12:10:47;3.20;;;0.98;;
66139;SDS011;52945;51.908;8.364;2024-01-15T12:13:48;2.55;;;1.08;;
66139;SDS011;52945;51.908;8.364;2024-01-15T12:16:49;1.52;;;0.88;;
66139;SDS011;52945;51.908;8.364;2024-01-15T12:19:49;1.75;;;1.13;;
66139;SDS011;52945;51.908;8.364;2024-01-15T12:22:50;1.50;;;1.40;;
66139;SDS011;52945;51.908;8.364;2024-01-15T12:25:51;1.40;;;0.85;;
66139;SDS011;52945;51.908;8.364;2024-01-15T12:28:51;0.90;;;0.85;;
66139;SDS011;52945;51.908;8.364;2024-01-15T12:31:52;3.42;;;1.23;;
66139;SDS011;52945;51.908;8.364;2024-01-15T12:34:55;2.17;;;0.90;;
66139;SDS011;52945;51.908;8.364;2024-01-15T12:37:55;3.63;;;1.63;;
66139;SDS011;52945;51.908;8.364;2024-01-15T12:40:56;7.60;;;1.05;;
66139;SDS011;52945;51.908;8.364;2024-01-15T12:43:57;2.00;;;1.20;;
66139;SDS011;52945;51.908;8.364;2024-01-15T12:46:57;3.22;;;1.15;;
66139;SDS011;52945;51.908;8.364;2024-01-15T12:49:58;5.30;;;0.90;;
66139;SDS011;52945;51.908;8.364;2024-01-15T12:53:02;4.70;;;1.30;;
66139;SDS011;52945;51.908;8.364;2024-01-15T12:56:02;2.55;;;1.40;;
66139;SDS011;52945;51.908;8.364;2024-01-15T12:59:04;2.58;;;1.20;;
66139;SDS011;52945;51.908;8.364;2024-01-15T13:02:05;5.75;;;1.20;;
66139;SDS011;52945;51.908;8.364;2024-01-15T13:05:06;0.73;;;0.73;;
66139;SDS011;52945;51.908;8.364;2024-01-15T13:08:09;4.50;;;1.10;;
66139;SDS011;52945;51.908;8.364;2024-01-15T13:11:09;6.82;;;1.50;;
66139;SDS011;52945;51.908;8.364;2024-01-15T13:14:10;1.77;;;1.50;;
66139;SDS011;52945;51.908;8.364;2024-01-15T13:17:11;4.78;;;1.65;;
66139;SDS011;52945;51.908;8.364;2024-01-15T13:20:12;1.27;;;1.10;;
66139;SDS011;52945;51.908;8.364;2024-01-15T13:23:12;3.22;;;1.20;;
66139;SDS011;52945;51.908;8.364;2024-01-15T13:26:14;3.30;;;1.45;;
66139;SDS011;52945;51.908;8.364;2024-01-15T13:29:15;1.58;;;1.27;;
66139;SDS011;52945;51.908;8.364;2024-01-15T13:32:17;0.85;;;0.70;;
66139;SDS011;52945;51.908;8.364;2024-01-15T13:35:25;6.35;;;1.38;;
66139;SDS011;52945;51.908;8.364;2024-01-15T13:38:26;3.22;;;1.20;;
66139;SDS011;52945;51.908;8.364;2024-01-15T13:41:27;1.17;;;1.00;;
66139;SDS011;52945;51.908;8.364;2024-01-15T13:44:29;1.52;;;1.15;;
66139;SDS011;52945;51.908;8.364;2024-01-15T13:47:30;2.95;;;1.00;;
66139;SDS011;52945;51.908;8.364;2024-01-15T13:50:31;4.97;;;1.20;;
66139;SDS011;52945;51.908;8.364;2024-01-15T13:53:31;1.30;;;1.05;;
66139;SDS011;52945;51.908;8.364;2024-01-15T13:56:32;1.27;;;0.93;;
66139;SDS011;52945;51.908;8.364;2024-01-15T13:59:33;1.52;;;1.30;;
66139;SDS011;52945;51.908;8.364;2024-01-15T14:02:33;1.73;;;1.08;;
66139;SDS011;52945;51.908;8.364;2024-01-15T14:05:34;2.83;;;1.08;;
66139;SDS011;52945;51.908;8.364;2024-01-15T14:08:35;2.63;;;1.33;;
66139;SDS011;52945;51.908;8.364;2024-01-15T14:11:36;1.48;;;0.95;;
66139;SDS011;52945;51.908;8.364;2024-01-15T14:14:37;2.00;;;1.38;;
66139;SDS011;52945;51.908;8.364;2024-01-15T14:17:38;1.13;;;1.05;;
66139;SDS011;52945;51.908;8.364;2024-01-15T14:20:38;0.80;;;0.80;;
66139;SDS011;52945;51.908;8.364;2024-01-15T14:23:39;3.17;;;1.58;;
66139;SDS011;52945;51.908;8.364;2024-01-15T14:26:40;4.13;;;0.75;;
66139;SDS011;52945;51.908;8.364;2024-01-15T14:29:40;1.23;;;0.90;;
66139;SDS011;52945;51.908;8.364;2024-01-15T14:32:41;2.22;;;1.05;;
66139;SDS011;52945;51.908;8.364;2024-01-15T14:35:42;5.93;;;1.20;;
66139;SDS011;52945;51.908;8.364;2024-01-15T14:38:43;1.27;;;0.95;;
66139;SDS011;52945;51.908;8.364;2024-01-15T14:41:43;2.85;;;1.17;;
66139;SDS011;52945;51.908;8.364;2024-01-15T14:44:44;2.22;;;1.15;;
66139;SDS011;52945;51.908;8.364;2024-01-15T14:47:44;0.90;;;0.90;;
66139;SDS011;52945;51.908;8.364;2024-01-15T14:50:45;1.48;;;1.20;;
66139;SDS011;52945;51.908;8.364;2024-01-15T14:53:46;1.48;;;1.00;;
66139;SDS011;52945;51.908;8.364;2024-01-15T14:56:46;5.30;;;1.23;;
66139;SDS011;52945;51.908;8.364;2024-01-15T14:59:47;1.13;;;1.02;;
66139;SDS011;52945;51.908;8.364;2024-01-15T15:02:47;2.83;;;0.90;;
66139;SDS011;52945;51.908;8.364;2024-01-15T15:05:49;1.05;;;0.80;;
66139;SDS011;52945;51.908;8.364;2024-01-15T15:08:50;0.65;;;0.65;;
66139;SDS011;52945;51.908;8.364;2024-01-15T15:11:51;1.75;;;0.90;;
66139;SDS011;52945;51.908;8.364;2024-01-15T15:14:52;0.70;;;0.70;;
66139;SDS011;52945;51.908;8.364;2024-01-15T15:17:54;2.00;;;0.80;;
66139;SDS011;52945;51.908;8.364;2024-01-15T15:20:55;1.90;;;0.70;;
66139;SDS011;52945;51.908;8.364;2024-01-15T15:23:55;2.28;;;1.05;;
66139;SDS011;52945;51.908;8.364;2024-01-15T15:26:56;0.93;;;0.93;;
66139;SDS011;52945;51.908;8.364;2024-01-15T15:29:57;0.50;;;0.50;;
66139;SDS011;52945;51.908;8.364;2024-01-15T15:32:57;0.80;;;0.70;;
66139;SDS011;52945;51.908;8.364;2024-01-15T15:35:58;2.15;;;0.63;;
66139;SDS011;52945;51.908;8.364;2024-01-15T15:38:59;1.05;;;1.02;;
66139;SDS011;52945;51.908;8.364;2024-01-15T15:42:00;0.63;;;0.55;;
66139;SDS011;52945;51.908;8.364;2024-01-15T15:45:00;1.92;;;0.80;;
66139;SDS011;52945;51.908;8.364;2024-01-15T15:48:01;2.28;;;1.00;;
66139;SDS011;52945;51.908;8.364;2024-01-15T15:51:01;0.82;;;0.70;;
66139;SDS011;52945;51.908;8.364;2024-01-15T15:57:07;0.73;;;0.73;;
66139;SDS011;52945;51.908;8.364;2024-01-15T16:00:08;2.83;;;0.82;;
66139;SDS011;52945;51.908;8.364;2024-01-15T16:03:09;2.45;;;0.70;;
66139;SDS011;52945;51.908;8.364;2024-01-15T16:06:10;1.13;;;1.02;;
66139;SDS011;52945;51.908;8.364;2024-01-15T16:09:14;1.27;;;0.65;;
66139;SDS011;52945;51.908;8.364;2024-01-15T16:12:14;0.75;;;0.75;;
66139;SDS011;52945;51.908;8.364;2024-01-15T16:15:21;3.30;;;1.05;;
66139;SDS011;52945;51.908;8.364;2024-01-15T16:18:22;1.08;;;0.98;;
66139;SDS011;52945;51.908;8.364;2024-01-15T16:21:23;1.58;;;0.88;;
66139;SDS011;52945;51.908;8.364;2024-01-15T16:24:24;4.43;;;0.80;;
66139;SDS011;52945;51.908;8.364;2024-01-15T16:27:26;1.38;;;0.80;;
66139;SDS011;52945;51.908;8.364;2024-01-15T16:30:26;1.20;;;1.10;;
66139;SDS011;52945;51.908;8.364;2024-01-15T16:33:27;1.13;;;1.00;;
66139;SDS011;52945;51.908;8.364;2024-01-15T16:36:28;0.88;;;0.88;;
66139;SDS011;52945;51.908;8.364;2024-01-15T16:39:28;1.10;;;0.95;;
66139;SDS011;52945;51.908;8.364;2024-01-15T16:42:30;0.93;;;0.93;;
66139;SDS011;52945;51.908;8.364;2024-01-15T16:45:30;1.90;;;0.93;;
66139;SDS011;52945;51.908;8.364;2024-01-15T16:48:31;2.25;;;0.90;;
66139;SDS011;52945;51.908;8.364;2024-01-15T16:51:31;1.75;;;1.05;;
66139;SDS011;52945;51.908;8.364;2024-01-15T16:54:32;3.53;;;1.48;;
66139;SDS011;52945;51.908;8.364;2024-01-15T16:57:33;2.75;;;1.35;;
66139;SDS011;52945;51.908;8.364;2024-01-15T17:00:33;1.50;;;0.90;;
66139;SDS011;52945;51.908;8.364;2024-01-15T17:03:34;4.72;;;1.35;;
66139;SDS011;52945;51.908;8.364;2024-01-15T17:06:34;1.08;;;0.98;;
66139;SDS011;52945;51.908;8.364;2024-01-15T17:09:35;2.17;;;1.38;;
66139;SDS011;52945;51.908;8.364;2024-01-15T17:12:36;4.97;;;1.30;;
66139;SDS011;52945;51.908;8.364;2024-01-15T17:15:38;2.53;;;1.02;;
66139;SDS011;52945;51.908;8.364;2024-01-15T17:18:39;1.77;;;0.60;;
66139;SDS011;52945;51.908;8.364;2024-01-15T17:21:39;1.75;;;1.45;;
66139;SDS011;52945;51.908;8.364;2024-01-15T17:24:41;2.97;;;1.13;;
66139;SDS011;52945;51.908;8.364;2024-01-15T17:27:41;2.17;;;1.25;;
66139;SDS011;52945;51.908;8.364;2024-01-15T17:30:42;1.42;;;1.00;;
66139;SDS011;52945;51.908;8.364;2024-01-15T17:33:46;3.67;;;0.98;;
66139;SDS011;52945;51.908;8.364;2024-01-15T17:36:47;6.43;;;1.10;;
66139;SDS011;52945;51.908;8.364;2024-01-15T17:39:47;2.22;;;1.10;;
66139;SDS011;52945;51.908;8.364;2024-01-15T17:42:48;2.95;;;1.55;;
66139;SDS011;52945;51.908;8.364;2024-01-15T17:45:49;1.02;;;0.98;;
66139;SDS011;52945;51.908;8.364;2024-01-15T17:48:51;0.95;;;0.88;;
66139;SDS011;52945;51.908;8.364;2024-01-15T17:51:52;3.08;;;1.30;;
66139;SDS011;52945;51.908;8.364;2024-01-15T17:54:53;0.93;;;0.77;;
66139;SDS011;52945;51.908;8.364;2024-01-15T17:57:54;1.00;;;0.93;;
66139;SDS011;52945;51.908;8.364;2024-01-15T18:00:55;6.18;;;1.20;;
66139;SDS011;52945;51.908;8.364;2024-01-15T18:03:59;0.65;;;0.65;;
66139;SDS011;52945;51.908;8.364;2024-01-15T18:07:03;1.15;;;0.80;;
66139;SDS011;52945;51.908;8.364;2024-01-15T18:10:04;2.42;;;1.48;;
66139;SDS011;52945;51.908;8.364;2024-01-15T18:13:05;3.38;;;0.73;;
66139;SDS011;52945;51.908;8.364;2024-01-15T18:19:07;2.58;;;1.05;;
66139;SDS011;52945;51.908;8.364;2024-01-15T18:22:08;1.67;;;0.88;;
66139;SDS011;52945;51.908;8.364;2024-01-15T18:25:09;0.70;;;0.70;;
66139;SDS011;52945;51.908;8.364;2024-01-15T18:28:10;1.52;;;1.00;;
66139;SDS011;52945;51.908;8.364;2024-01-15T18:31:14;1.17;;;1.08;;
66139;SDS011;52945;51.908;8.364;2024-01-15T18:34:15;1.90;;;1.17;;